sensor_id;sensor_type;location;lat;lon;timestamp;temperature;humidity
20442;DHT22;10380;52.102;20.614;2023-10-31T00:01:50;11.90;99.90
20442;DHT22;10380;52.102;20.614;2023-10-31T00:04:17;11.90;99.90
20442;DHT22;10380;52.102;20.614;2023-10-31T00:06:44;11.90;99.90
20442;DHT22;10380;52.102;20.614;2023-10-31T00:09:11;11.80;99.90
20442;DHT22;10380;52.102;20.614;2023-10-31T00:11:38;11.80;99.90
20442;DHT22;10380;52.102;20.614;2023-10-31T00:14:07;11.80;99.90
20442;DHT22;10380;52.102;20.614;2023-10-31T00:16:55;11.80;99.90
20442;DHT22;10380;52.102;20.614;2023-10-31T00:19:22;11.80;99.90
20442;DHT22;10380;52.102;20.614;2023-10-31T00:21:49;11.80;99.90
20442;DHT22;10380;52.102;20.614;2023-10-31T00:24:15;11.80;99.90
20442;DHT22;10380;52.102;20.614;2023-10-31T00:26:42;11.70;99.90
20442;DHT22;10380;52.102;20.614;2023-10-31T00:29:09;11.70;99.90
20442;DHT22;10380;52.102;20.614;2023-10-31T00:31:37;11.70;99.90
20442;DHT22;10380;52.102;20.614;2023-10-31T00:34:08;11.70;99.90
20442;DHT22;10380;52.102;20.614;2023-10-31T00:36:36;11.70;99.90
20442;DHT22;10380;52.102;20.614;2023-10-31T00:39:03;11.70;99.90
20442;DHT22;10380;52.102;20.614;2023-10-31T00:41:30;11.70;99.90
20442;DHT22;10380;52.102;20.614;2023-10-31T00:43:57;11.80;99.90
20442;DHT22;10380;52.102;20.614;2023-10-31T00:46:27;11.70;99.90
20442;DHT22;10380;52.102;20.614;2023-10-31T00:48:56;11.70;99.90
20442;DHT22;10380;52.102;20.614;2023-10-31T00:51:24;11.70;99.90
20442;DHT22;10380;52.102;20.614;2023-10-31T00:53:50;11.70;99.90
20442;DHT22;10380;52.102;20.614;2023-10-31T00:56:17;11.70;99.90
20442;DHT22;10380;52.102;20.614;2023-10-31T00:58:45;11.70;99.90
20442;DHT22;10380;52.102;20.614;2023-10-31T01:01:12;11.70;99.90
20442;DHT22;10380;52.102;20.614;2023-10-31T01:03:42;11.70;99.90
20442;DHT22;10380;52.102;20.614;2023-10-31T01:06:09;11.70;99.90
20442;DHT22;10380;52.102;20.614;2023-10-31T01:08:35;11.70;99.90
20442;DHT22;10380;52.102;20.614;2023-10-31T01:11:02;11.70;99.90
20442;DHT22;10380;52.102;20.614;2023-10-31T01:13:29;11.70;99.90
20442;DHT22;10380;52.102;20.614;2023-10-31T01:15:56;11.70;99.90
20442;DHT22;10380;52.102;20.614;2023-10-31T01:18:23;11.70;99.90
20442;DHT22;10380;52.102;20.614;2023-10-31T01:20:50;11.80;99.90
20442;DHT22;10380;52.102;20.614;2023-10-31T01:23:17;11.80;99.90
20442;DHT22;10380;52.102;20.614;2023-10-31T01:25:44;11.80;99.90
20442;DHT22;10380;52.102;20.614;2023-10-31T01:28:12;11.90;99.90
20442;DHT22;10380;52.102;20.614;2023-10-31T01:30:39;11.90;99.90
20442;DHT22;10380;52.102;20.614;2023-10-31T01:33:06;11.90;99.90
20442;DHT22;10380;52.102;20.614;2023-10-31T01:35:33;11.90;99.90
20442;DHT22;10380;52.102;20.614;2023-10-31T01:38:01;11.90;99.90
20442;DHT22;10380;52.102;20.614;2023-10-31T01:40:28;11.90;99.90
20442;DHT22;10380;52.102;20.614;2023-10-31T01:42:55;12.00;99.90
20442;DHT22;10380;52.102;20.614;2023-10-31T01:45:22;11.90;99.90
20442;DHT22;10380;52.102;20.614;2023-10-31T01:47:49;12.00;99.90
20442;DHT22;10380;52.102;20.614;2023-10-31T01:50:16;12.00;99.90
20442;DHT22;10380;52.102;20.614;2023-10-31T01:52:46;12.00;99.90
20442;DHT22;10380;52.102;20.614;2023-10-31T01:55:13;12.00;99.90
20442;DHT22;10380;52.102;20.614;2023-10-31T01:57:44;12.00;99.90
20442;DHT22;10380;52.102;20.614;2023-10-31T02:00:13;12.00;99.90
20442;DHT22;10380;52.102;20.614;2023-10-31T02:02:41;12.00;99.90
20442;DHT22;10380;52.102;20.614;2023-10-31T02:05:10;12.00;99.90
20442;DHT22;10380;52.102;20.614;2023-10-31T02:07:38;12.00;99.90
20442;DHT22;10380;52.102;20.614;2023-10-31T02:10:05;12.10;99.90
20442;DHT22;10380;52.102;20.614;2023-10-31T02:12:37;12.00;99.90
20442;DHT22;10380;52.102;20.614;2023-10-31T02:15:05;12.10;99.90
20442;DHT22;10380;52.102;20.614;2023-10-31T02:17:32;12.10;99.90
20442;DHT22;10380;52.102;20.614;2023-10-31T02:20:00;12.10;99.90
20442;DHT22;10380;52.102;20.614;2023-10-31T02:22:27;12.10;99.90
20442;DHT22;10380;52.102;20.614;2023-10-31T02:24:54;12.10;99.90
20442;DHT22;10380;52.102;20.614;2023-10-31T02:27:21;12.10;99.90
20442;DHT22;10380;52.102;20.614;2023-10-31T02:29:47;12.20;99.90
20442;DHT22;10380;52.102;20.614;2023-10-31T02:32:14;12.20;99.90
20442;DHT22;10380;52.102;20.614;2023-10-31T02:34:44;12.20;99.90
20442;DHT22;10380;52.102;20.614;2023-10-31T02:37:12;12.20;99.90
20442;DHT22;10380;52.102;20.614;2023-10-31T02:39:40;12.20;99.90
20442;DHT22;10380;52.102;20.614;2023-10-31T02:42:07;12.20;99.90
20442;DHT22;10380;52.102;20.614;2023-10-31T02:44:34;12.20;99.90
20442;DHT22;10380;52.102;20.614;2023-10-31T02:47:00;12.20;99.90
20442;DHT22;10380;52.102;20.614;2023-10-31T02:49:27;12.20;99.90
20442;DHT22;10380;52.102;20.614;2023-10-31T02:51:54;12.20;99.90
20442;DHT22;10380;52.102;20.614;2023-10-31T02:54:21;12.20;99.90
20442;DHT22;10380;52.102;20.614;2023-10-31T02:56:48;12.20;99.90
20442;DHT22;10380;52.102;20.614;2023-10-31T02:59:16;12.30;99.90
20442;DHT22;10380;52.102;20.614;2023-10-31T03:01:43;12.30;99.90
20442;DHT22;10380;52.102;20.614;2023-10-31T03:04:10;12.30;99.90
20442;DHT22;10380;52.102;20.614;2023-10-31T03:06:37;12.40;99.90
20442;DHT22;10380;52.102;20.614;2023-10-31T03:09:04;12.50;99.90
20442;DHT22;10380;52.102;20.614;2023-10-31T03:11:31;12.40;99.90
20442;DHT22;10380;52.102;20.614;2023-10-31T03:14:01;12.50;99.90
20442;DHT22;10380;52.102;20.614;2023-10-31T03:16:28;12.50;99.90
20442;DHT22;10380;52.102;20.614;2023-10-31T03:18:56;12.50;99.90
20442;DHT22;10380;52.102;20.614;2023-10-31T03:21:23;12.60;99.90
20442;DHT22;10380;52.102;20.614;2023-10-31T03:23:51;12.60;99.90
20442;DHT22;10380;52.102;20.614;2023-10-31T03:26:21;12.60;99.90
20442;DHT22;10380;52.102;20.614;2023-10-31T03:28:48;12.70;99.90
20442;DHT22;10380;52.102;20.614;2023-10-31T03:31:15;12.70;99.90
20442;DHT22;10380;52.102;20.614;2023-10-31T03:33:43;12.70;99.90
20442;DHT22;10380;52.102;20.614;2023-10-31T03:36:10;12.80;99.90
20442;DHT22;10380;52.102;20.614;2023-10-31T03:38:36;12.80;99.90
20442;DHT22;10380;52.102;20.614;2023-10-31T03:41:04;12.80;99.90
20442;DHT22;10380;52.102;20.614;2023-10-31T03:43:31;12.90;99.90
20442;DHT22;10380;52.102;20.614;2023-10-31T03:46:00;12.80;99.90
20442;DHT22;10380;52.102;20.614;2023-10-31T03:48:27;12.90;99.90
20442;DHT22;10380;52.102;20.614;2023-10-31T03:50:54;13.00;99.90
20442;DHT22;10380;52.102;20.614;2023-10-31T03:53:20;13.00;99.90
20442;DHT22;10380;52.102;20.614;2023-10-31T03:55:49;13.00;99.90
20442;DHT22;10380;52.102;20.614;2023-10-31T03:58:19;13.00;99.90
20442;DHT22;10380;52.102;20.614;2023-10-31T04:00:46;13.10;99.90
20442;DHT22;10380;52.102;20.614;2023-10-31T04:03:15;13.10;99.90
20442;DHT22;10380;52.102;20.614;2023-10-31T04:05:42;13.10;99.90
20442;DHT22;10380;52.102;20.614;2023-10-31T04:08:08;13.10;99.90
20442;DHT22;10380;52.102;20.614;2023-10-31T04:10:36;13.10;99.90
20442;DHT22;10380;52.102;20.614;2023-10-31T04:13:02;13.20;99.90
20442;DHT22;10380;52.102;20.614;2023-10-31T04:15:30;13.20;99.90
20442;DHT22;10380;52.102;20.614;2023-10-31T04:17:57;13.20;99.90
20442;DHT22;10380;52.102;20.614;2023-10-31T04:20:25;13.20;99.90
20442;DHT22;10380;52.102;20.614;2023-10-31T04:22:58;13.30;99.90
20442;DHT22;10380;52.102;20.614;2023-10-31T04:25:25;13.30;99.90
20442;DHT22;10380;52.102;20.614;2023-10-31T04:27:53;13.30;99.90
20442;DHT22;10380;52.102;20.614;2023-10-31T04:30:20;13.40;99.90
20442;DHT22;10380;52.102;20.614;2023-10-31T04:32:48;13.40;99.90
20442;DHT22;10380;52.102;20.614;2023-10-31T04:35:21;13.40;99.90
20442;DHT22;10380;52.102;20.614;2023-10-31T04:37:49;13.40;99.90
20442;DHT22;10380;52.102;20.614;2023-10-31T04:40:16;13.50;99.90
20442;DHT22;10380;52.102;20.614;2023-10-31T04:42:43;13.50;99.90
20442;DHT22;10380;52.102;20.614;2023-10-31T04:45:12;13.50;99.90
20442;DHT22;10380;52.102;20.614;2023-10-31T04:47:41;13.50;99.90
20442;DHT22;10380;52.102;20.614;2023-10-31T04:50:08;13.60;99.90
20442;DHT22;10380;52.102;20.614;2023-10-31T04:52:35;13.60;99.90
20442;DHT22;10380;52.102;20.614;2023-10-31T04:55:02;13.70;99.90
20442;DHT22;10380;52.102;20.614;2023-10-31T04:57:29;13.70;99.90
20442;DHT22;10380;52.102;20.614;2023-10-31T04:59:56;13.70;99.90
20442;DHT22;10380;52.102;20.614;2023-10-31T05:02:27;13.80;99.90
20442;DHT22;10380;52.102;20.614;2023-10-31T05:04:55;13.80;99.90
20442;DHT22;10380;52.102;20.614;2023-10-31T05:07:22;13.80;99.90
20442;DHT22;10380;52.102;20.614;2023-10-31T05:09:50;13.80;99.90
20442;DHT22;10380;52.102;20.614;2023-10-31T05:12:17;13.90;99.90
20442;DHT22;10380;52.102;20.614;2023-10-31T05:14:45;13.90;99.90
20442;DHT22;10380;52.102;20.614;2023-10-31T05:17:14;13.80;99.90
20442;DHT22;10380;52.102;20.614;2023-10-31T05:19:41;13.80;99.90
20442;DHT22;10380;52.102;20.614;2023-10-31T05:22:08;13.90;99.90
20442;DHT22;10380;52.102;20.614;2023-10-31T05:24:36;13.90;99.90
20442;DHT22;10380;52.102;20.614;2023-10-31T05:27:03;14.00;99.90
20442;DHT22;10380;52.102;20.614;2023-10-31T05:29:30;14.10;99.90
20442;DHT22;10380;52.102;20.614;2023-10-31T05:31:57;14.10;99.90
20442;DHT22;10380;52.102;20.614;2023-10-31T05:34:24;14.20;99.90
20442;DHT22;10380;52.102;20.614;2023-10-31T05:36:51;14.30;99.90
20442;DHT22;10380;52.102;20.614;2023-10-31T05:39:19;14.30;99.90
20442;DHT22;10380;52.102;20.614;2023-10-31T05:41:46;14.40;99.90
20442;DHT22;10380;52.102;20.614;2023-10-31T05:44:13;14.40;99.90
20442;DHT22;10380;52.102;20.614;2023-10-31T05:46:41;14.40;99.90
20442;DHT22;10380;52.102;20.614;2023-10-31T05:49:08;14.50;99.90
20442;DHT22;10380;52.102;20.614;2023-10-31T05:51:35;14.50;99.90
20442;DHT22;10380;52.102;20.614;2023-10-31T05:54:02;14.50;99.90
20442;DHT22;10380;52.102;20.614;2023-10-31T05:56:29;14.60;99.90
20442;DHT22;10380;52.102;20.614;2023-10-31T05:58:56;14.60;99.90
20442;DHT22;10380;52.102;20.614;2023-10-31T06:01:23;14.60;99.90
20442;DHT22;10380;52.102;20.614;2023-10-31T06:03:50;14.60;99.90
20442;DHT22;10380;52.102;20.614;2023-10-31T06:06:18;14.60;99.90
20442;DHT22;10380;52.102;20.614;2023-10-31T06:08:44;14.60;99.90
20442;DHT22;10380;52.102;20.614;2023-10-31T06:11:12;14.70;99.90
20442;DHT22;10380;52.102;20.614;2023-10-31T06:13:40;14.80;99.90
20442;DHT22;10380;52.102;20.614;2023-10-31T06:16:07;14.80;99.90
20442;DHT22;10380;52.102;20.614;2023-10-31T06:18:34;14.90;99.90
20442;DHT22;10380;52.102;20.614;2023-10-31T06:21:03;14.90;99.90
20442;DHT22;10380;52.102;20.614;2023-10-31T06:23:30;15.00;99.90
20442;DHT22;10380;52.102;20.614;2023-10-31T06:25:58;15.00;99.90
20442;DHT22;10380;52.102;20.614;2023-10-31T06:28:26;15.10;99.90
20442;DHT22;10380;52.102;20.614;2023-10-31T06:30:52;15.10;99.90
20442;DHT22;10380;52.102;20.614;2023-10-31T06:33:19;15.10;99.90
20442;DHT22;10380;52.102;20.614;2023-10-31T06:35:47;15.10;99.90
20442;DHT22;10380;52.102;20.614;2023-10-31T06:38:14;15.20;99.90
20442;DHT22;10380;52.102;20.614;2023-10-31T06:40:41;15.20;99.90
20442;DHT22;10380;52.102;20.614;2023-10-31T06:43:08;15.20;99.90
20442;DHT22;10380;52.102;20.614;2023-10-31T06:45:35;15.30;99.90
20442;DHT22;10380;52.102;20.614;2023-10-31T06:48:02;15.30;99.90
20442;DHT22;10380;52.102;20.614;2023-10-31T06:50:29;15.30;99.90
20442;DHT22;10380;52.102;20.614;2023-10-31T06:52:56;15.20;99.90
20442;DHT22;10380;52.102;20.614;2023-10-31T06:55:23;15.30;99.90
20442;DHT22;10380;52.102;20.614;2023-10-31T06:57:50;15.30;99.90
20442;DHT22;10380;52.102;20.614;2023-10-31T07:00:17;15.30;99.90
20442;DHT22;10380;52.102;20.614;2023-10-31T07:02:44;15.20;99.90
20442;DHT22;10380;52.102;20.614;2023-10-31T07:05:10;15.30;99.90
20442;DHT22;10380;52.102;20.614;2023-10-31T07:07:37;15.20;99.90
20442;DHT22;10380;52.102;20.614;2023-10-31T07:10:05;15.20;99.90
20442;DHT22;10380;52.102;20.614;2023-10-31T07:12:32;15.10;99.90
20442;DHT22;10380;52.102;20.614;2023-10-31T07:14:59;15.10;99.90
20442;DHT22;10380;52.102;20.614;2023-10-31T07:17:26;15.10;99.90
20442;DHT22;10380;52.102;20.614;2023-10-31T07:19:53;15.00;99.90
20442;DHT22;10380;52.102;20.614;2023-10-31T07:22:20;15.00;99.90
20442;DHT22;10380;52.102;20.614;2023-10-31T07:24:47;15.00;99.90
20442;DHT22;10380;52.102;20.614;2023-10-31T07:27:13;14.90;99.90
20442;DHT22;10380;52.102;20.614;2023-10-31T07:29:40;15.00;99.90
20442;DHT22;10380;52.102;20.614;2023-10-31T07:32:08;14.90;99.90
20442;DHT22;10380;52.102;20.614;2023-10-31T07:34:39;14.90;99.90
20442;DHT22;10380;52.102;20.614;2023-10-31T07:37:06;14.90;99.90
20442;DHT22;10380;52.102;20.614;2023-10-31T07:39:33;14.90;99.90
20442;DHT22;10380;52.102;20.614;2023-10-31T07:42:00;14.80;99.90
20442;DHT22;10380;52.102;20.614;2023-10-31T07:44:27;14.80;99.90
20442;DHT22;10380;52.102;20.614;2023-10-31T07:46:55;14.90;99.90
20442;DHT22;10380;52.102;20.614;2023-10-31T07:49:21;14.90;99.90
20442;DHT22;10380;52.102;20.614;2023-10-31T07:51:48;14.90;99.90
20442;DHT22;10380;52.102;20.614;2023-10-31T07:54:15;14.90;99.90
20442;DHT22;10380;52.102;20.614;2023-10-31T07:56:43;15.00;99.90
20442;DHT22;10380;52.102;20.614;2023-10-31T07:59:09;15.10;99.90
20442;DHT22;10380;52.102;20.614;2023-10-31T08:01:37;15.20;99.90
20442;DHT22;10380;52.102;20.614;2023-10-31T08:04:05;15.40;99.90
20442;DHT22;10380;52.102;20.614;2023-10-31T08:06:31;15.50;99.90
20442;DHT22;10380;52.102;20.614;2023-10-31T08:08:59;15.70;99.90
20442;DHT22;10380;52.102;20.614;2023-10-31T08:11:25;15.80;99.90
20442;DHT22;10380;52.102;20.614;2023-10-31T08:13:53;15.90;99.90
20442;DHT22;10380;52.102;20.614;2023-10-31T08:16:20;16.00;99.90
20442;DHT22;10380;52.102;20.614;2023-10-31T08:18:47;16.00;99.90
20442;DHT22;10380;52.102;20.614;2023-10-31T08:21:13;16.00;99.90
20442;DHT22;10380;52.102;20.614;2023-10-31T08:23:40;16.10;99.90
20442;DHT22;10380;52.102;20.614;2023-10-31T08:26:08;16.00;99.90
20442;DHT22;10380;52.102;20.614;2023-10-31T08:28:35;16.10;99.90
20442;DHT22;10380;52.102;20.614;2023-10-31T08:31:02;16.10;99.90
20442;DHT22;10380;52.102;20.614;2023-10-31T08:33:30;16.10;99.90
20442;DHT22;10380;52.102;20.614;2023-10-31T08:35:58;16.10;99.90
20442;DHT22;10380;52.102;20.614;2023-10-31T08:38:25;16.20;99.90
20442;DHT22;10380;52.102;20.614;2023-10-31T08:40:58;16.20;99.90
20442;DHT22;10380;52.102;20.614;2023-10-31T08:43:26;16.30;99.90
20442;DHT22;10380;52.102;20.614;2023-10-31T08:45:53;16.30;99.90
20442;DHT22;10380;52.102;20.614;2023-10-31T08:48:20;16.40;99.90
20442;DHT22;10380;52.102;20.614;2023-10-31T08:50:47;16.40;99.90
20442;DHT22;10380;52.102;20.614;2023-10-31T08:53:14;16.40;99.90
20442;DHT22;10380;52.102;20.614;2023-10-31T08:55:41;16.50;99.90
20442;DHT22;10380;52.102;20.614;2023-10-31T08:58:11;16.50;99.90
20442;DHT22;10380;52.102;20.614;2023-10-31T09:00:39;16.50;99.90
20442;DHT22;10380;52.102;20.614;2023-10-31T09:03:09;16.50;99.90
20442;DHT22;10380;52.102;20.614;2023-10-31T09:05:36;16.60;99.90
20442;DHT22;10380;52.102;20.614;2023-10-31T09:08:03;16.60;99.90
20442;DHT22;10380;52.102;20.614;2023-10-31T09:10:30;16.70;99.90
20442;DHT22;10380;52.102;20.614;2023-10-31T09:12:57;16.70;99.90
20442;DHT22;10380;52.102;20.614;2023-10-31T09:15:24;16.70;99.90
20442;DHT22;10380;52.102;20.614;2023-10-31T09:17:51;16.70;99.90
20442;DHT22;10380;52.102;20.614;2023-10-31T09:20:18;16.70;99.90
20442;DHT22;10380;52.102;20.614;2023-10-31T09:22:45;16.70;99.90
20442;DHT22;10380;52.102;20.614;2023-10-31T09:25:11;16.80;99.90
20442;DHT22;10380;52.102;20.614;2023-10-31T09:27:41;16.80;99.90
20442;DHT22;10380;52.102;20.614;2023-10-31T09:30:08;16.90;99.90
20442;DHT22;10380;52.102;20.614;2023-10-31T09:32:36;16.90;99.90
20442;DHT22;10380;52.102;20.614;2023-10-31T09:35:03;17.00;99.90
20442;DHT22;10380;52.102;20.614;2023-10-31T09:37:31;17.00;99.90
20442;DHT22;10380;52.102;20.614;2023-10-31T09:39:58;17.00;99.90
20442;DHT22;10380;52.102;20.614;2023-10-31T09:42:24;17.10;99.90
20442;DHT22;10380;52.102;20.614;2023-10-31T09:44:52;17.10;99.90
20442;DHT22;10380;52.102;20.614;2023-10-31T09:47:20;17.10;99.90
20442;DHT22;10380;52.102;20.614;2023-10-31T09:49:47;17.20;99.90
20442;DHT22;10380;52.102;20.614;2023-10-31T09:52:14;17.20;99.90
20442;DHT22;10380;52.102;20.614;2023-10-31T09:54:41;17.30;99.90
20442;DHT22;10380;52.102;20.614;2023-10-31T09:57:13;17.30;99.90
20442;DHT22;10380;52.102;20.614;2023-10-31T09:59:40;17.40;99.90
20442;DHT22;10380;52.102;20.614;2023-10-31T10:02:07;17.50;99.90
20442;DHT22;10380;52.102;20.614;2023-10-31T10:04:36;17.60;99.90
20442;DHT22;10380;52.102;20.614;2023-10-31T10:07:04;17.60;99.90
20442;DHT22;10380;52.102;20.614;2023-10-31T10:09:31;17.80;99.90
20442;DHT22;10380;52.102;20.614;2023-10-31T10:12:01;17.90;99.90
20442;DHT22;10380;52.102;20.614;2023-10-31T10:14:28;18.10;99.90
20442;DHT22;10380;52.102;20.614;2023-10-31T10:16:58;18.20;99.90
20442;DHT22;10380;52.102;20.614;2023-10-31T10:19:25;18.30;99.90
20442;DHT22;10380;52.102;20.614;2023-10-31T10:21:57;18.30;99.90
20442;DHT22;10380;52.102;20.614;2023-10-31T10:24:24;18.40;99.90
20442;DHT22;10380;52.102;20.614;2023-10-31T10:26:52;18.40;99.90
20442;DHT22;10380;52.102;20.614;2023-10-31T10:29:19;18.40;99.90
20442;DHT22;10380;52.102;20.614;2023-10-31T10:31:46;18.40;99.90
20442;DHT22;10380;52.102;20.614;2023-10-31T10:34:16;18.40;99.90
20442;DHT22;10380;52.102;20.614;2023-10-31T10:36:48;18.30;99.90
20442;DHT22;10380;52.102;20.614;2023-10-31T10:39:20;18.30;99.90
20442;DHT22;10380;52.102;20.614;2023-10-31T10:41:53;18.30;99.90
20442;DHT22;10380;52.102;20.614;2023-10-31T10:44:36;18.30;99.90
20442;DHT22;10380;52.102;20.614;2023-10-31T10:47:06;18.20;99.90
20442;DHT22;10380;52.102;20.614;2023-10-31T10:49:35;18.30;99.90
20442;DHT22;10380;52.102;20.614;2023-10-31T10:52:16;18.30;99.90
20442;DHT22;10380;52.102;20.614;2023-10-31T10:55:01;18.40;99.90
20442;DHT22;10380;52.102;20.614;2023-10-31T10:58:12;18.50;99.90
20442;DHT22;10380;52.102;20.614;2023-10-31T11:00:41;18.50;99.90
20442;DHT22;10380;52.102;20.614;2023-10-31T11:03:08;18.60;99.90
20442;DHT22;10380;52.102;20.614;2023-10-31T11:05:35;18.60;99.90
20442;DHT22;10380;52.102;20.614;2023-10-31T11:08:04;18.60;99.90
20442;DHT22;10380;52.102;20.614;2023-10-31T11:10:32;18.50;99.90
20442;DHT22;10380;52.102;20.614;2023-10-31T11:12:59;18.50;99.90
20442;DHT22;10380;52.102;20.614;2023-10-31T11:15:26;18.50;99.90
20442;DHT22;10380;52.102;20.614;2023-10-31T11:17:55;18.40;99.90
20442;DHT22;10380;52.102;20.614;2023-10-31T11:20:22;18.40;99.90
20442;DHT22;10380;52.102;20.614;2023-10-31T11:22:55;18.40;99.90
20442;DHT22;10380;52.102;20.614;2023-10-31T11:25:24;18.30;99.90
20442;DHT22;10380;52.102;20.614;2023-10-31T11:28:17;18.30;99.90
20442;DHT22;10380;52.102;20.614;2023-10-31T11:30:50;18.20;99.90
20442;DHT22;10380;52.102;20.614;2023-10-31T11:33:21;18.10;99.90
20442;DHT22;10380;52.102;20.614;2023-10-31T11:35:51;18.00;99.90
20442;DHT22;10380;52.102;20.614;2023-10-31T11:38:36;18.00;99.90
20442;DHT22;10380;52.102;20.614;2023-10-31T11:41:05;18.10;99.90
20442;DHT22;10380;52.102;20.614;2023-10-31T11:46:06;18.40;99.90
20442;DHT22;10380;52.102;20.614;2023-10-31T11:48:46;18.70;99.90
20442;DHT22;10380;52.102;20.614;2023-10-31T11:51:13;18.90;99.90
20442;DHT22;10380;52.102;20.614;2023-10-31T11:53:40;19.00;99.90
20442;DHT22;10380;52.102;20.614;2023-10-31T11:56:10;19.00;99.90
20442;DHT22;10380;52.102;20.614;2023-10-31T11:58:37;19.00;99.90
20442;DHT22;10380;52.102;20.614;2023-10-31T12:01:06;18.80;99.90
20442;DHT22;10380;52.102;20.614;2023-10-31T12:03:41;18.70;99.90
20442;DHT22;10380;52.102;20.614;2023-10-31T12:06:10;18.60;99.90
20442;DHT22;10380;52.102;20.614;2023-10-31T12:08:39;18.40;99.90
20442;DHT22;10380;52.102;20.614;2023-10-31T12:13:42;18.30;99.90
20442;DHT22;10380;52.102;20.614;2023-10-31T12:16:10;18.20;99.90
20442;DHT22;10380;52.102;20.614;2023-10-31T12:18:38;18.10;99.90
20442;DHT22;10380;52.102;20.614;2023-10-31T12:21:07;17.90;99.90
20442;DHT22;10380;52.102;20.614;2023-10-31T12:23:35;17.80;99.90
20442;DHT22;10380;52.102;20.614;2023-10-31T12:26:02;17.70;99.90
20442;DHT22;10380;52.102;20.614;2023-10-31T12:28:29;17.60;99.90
20442;DHT22;10380;52.102;20.614;2023-10-31T12:30:56;17.40;99.90
20442;DHT22;10380;52.102;20.614;2023-10-31T12:33:27;17.40;99.90
20442;DHT22;10380;52.102;20.614;2023-10-31T12:35:59;17.30;99.90
20442;DHT22;10380;52.102;20.614;2023-10-31T12:38:26;17.30;99.90
20442;DHT22;10380;52.102;20.614;2023-10-31T12:40:54;17.20;99.90
20442;DHT22;10380;52.102;20.614;2023-10-31T12:43:22;17.20;99.90
20442;DHT22;10380;52.102;20.614;2023-10-31T12:45:49;17.10;99.90
20442;DHT22;10380;52.102;20.614;2023-10-31T12:48:15;17.10;99.90
20442;DHT22;10380;52.102;20.614;2023-10-31T12:50:42;17.00;99.90
20442;DHT22;10380;52.102;20.614;2023-10-31T12:53:09;17.00;99.90
20442;DHT22;10380;52.102;20.614;2023-10-31T12:55:42;17.00;99.90
20442;DHT22;10380;52.102;20.614;2023-10-31T12:58:20;17.00;99.90
20442;DHT22;10380;52.102;20.614;2023-10-31T13:00:47;17.00;99.90
20442;DHT22;10380;52.102;20.614;2023-10-31T13:03:14;16.90;99.90
20442;DHT22;10380;52.102;20.614;2023-10-31T13:05:42;16.90;99.90
20442;DHT22;10380;52.102;20.614;2023-10-31T13:08:15;16.90;99.90
20442;DHT22;10380;52.102;20.614;2023-10-31T13:10:43;16.90;99.90
20442;DHT22;10380;52.102;20.614;2023-10-31T13:13:10;16.90;99.90
20442;DHT22;10380;52.102;20.614;2023-10-31T13:15:39;16.80;99.90
20442;DHT22;10380;52.102;20.614;2023-10-31T13:18:06;16.80;99.90
20442;DHT22;10380;52.102;20.614;2023-10-31T13:20:33;16.80;99.90
20442;DHT22;10380;52.102;20.614;2023-10-31T13:23:00;16.80;99.90
20442;DHT22;10380;52.102;20.614;2023-10-31T13:25:29;16.80;99.90
20442;DHT22;10380;52.102;20.614;2023-10-31T13:27:58;16.70;99.90
20442;DHT22;10380;52.102;20.614;2023-10-31T13:30:25;16.70;99.90
20442;DHT22;10380;52.102;20.614;2023-10-31T13:32:52;16.70;99.90
20442;DHT22;10380;52.102;20.614;2023-10-31T13:35:20;16.70;99.90
20442;DHT22;10380;52.102;20.614;2023-10-31T13:37:47;16.60;99.90
20442;DHT22;10380;52.102;20.614;2023-10-31T13:40:14;16.60;99.90
20442;DHT22;10380;52.102;20.614;2023-10-31T13:42:41;16.60;99.90
20442;DHT22;10380;52.102;20.614;2023-10-31T13:45:08;16.60;99.90
20442;DHT22;10380;52.102;20.614;2023-10-31T13:47:35;16.60;99.90
20442;DHT22;10380;52.102;20.614;2023-10-31T13:50:05;16.60;99.90
20442;DHT22;10380;52.102;20.614;2023-10-31T13:52:33;16.60;99.90
20442;DHT22;10380;52.102;20.614;2023-10-31T13:55:00;16.60;99.90
20442;DHT22;10380;52.102;20.614;2023-10-31T13:57:27;16.60;99.90
20442;DHT22;10380;52.102;20.614;2023-10-31T13:59:53;16.70;99.90
20442;DHT22;10380;52.102;20.614;2023-10-31T14:02:20;16.60;99.90
20442;DHT22;10380;52.102;20.614;2023-10-31T14:04:47;16.60;99.90
20442;DHT22;10380;52.102;20.614;2023-10-31T14:07:21;16.60;99.90
20442;DHT22;10380;52.102;20.614;2023-10-31T14:09:49;16.60;99.90
20442;DHT22;10380;52.102;20.614;2023-10-31T14:12:16;16.60;99.90
20442;DHT22;10380;52.102;20.614;2023-10-31T14:14:43;16.60;99.90
20442;DHT22;10380;52.102;20.614;2023-10-31T14:17:11;16.60;99.90
20442;DHT22;10380;52.102;20.614;2023-10-31T14:19:38;16.60;99.90
20442;DHT22;10380;52.102;20.614;2023-10-31T14:22:06;16.50;99.90
20442;DHT22;10380;52.102;20.614;2023-10-31T14:24:33;16.40;99.90
20442;DHT22;10380;52.102;20.614;2023-10-31T14:27:01;16.40;99.90
20442;DHT22;10380;52.102;20.614;2023-10-31T14:29:28;16.30;99.90
20442;DHT22;10380;52.102;20.614;2023-10-31T14:31:55;16.30;99.90
20442;DHT22;10380;52.102;20.614;2023-10-31T14:34:23;16.10;99.90
20442;DHT22;10380;52.102;20.614;2023-10-31T14:36:50;16.10;99.90
20442;DHT22;10380;52.102;20.614;2023-10-31T14:39:17;16.00;99.90
20442;DHT22;10380;52.102;20.614;2023-10-31T14:41:44;16.00;99.90
20442;DHT22;10380;52.102;20.614;2023-10-31T14:44:11;15.90;99.90
20442;DHT22;10380;52.102;20.614;2023-10-31T14:46:38;15.80;99.90
20442;DHT22;10380;52.102;20.614;2023-10-31T14:49:06;15.80;99.90
20442;DHT22;10380;52.102;20.614;2023-10-31T14:51:33;15.70;99.90
20442;DHT22;10380;52.102;20.614;2023-10-31T14:54:00;15.70;99.90
20442;DHT22;10380;52.102;20.614;2023-10-31T14:56:27;15.60;99.90
20442;DHT22;10380;52.102;20.614;2023-10-31T14:58:56;15.60;99.90
20442;DHT22;10380;52.102;20.614;2023-10-31T15:01:24;15.60;99.90
20442;DHT22;10380;52.102;20.614;2023-10-31T15:03:50;15.50;99.90
20442;DHT22;10380;52.102;20.614;2023-10-31T15:06:21;15.50;99.90
20442;DHT22;10380;52.102;20.614;2023-10-31T15:08:48;15.40;99.90
20442;DHT22;10380;52.102;20.614;2023-10-31T15:11:15;15.40;99.90
20442;DHT22;10380;52.102;20.614;2023-10-31T15:13:43;15.30;99.90
20442;DHT22;10380;52.102;20.614;2023-10-31T15:16:12;15.30;99.90
20442;DHT22;10380;52.102;20.614;2023-10-31T15:18:39;15.20;99.90
20442;DHT22;10380;52.102;20.614;2023-10-31T15:21:09;15.20;99.90
20442;DHT22;10380;52.102;20.614;2023-10-31T15:23:36;15.10;99.90
20442;DHT22;10380;52.102;20.614;2023-10-31T15:26:04;15.10;99.90